createdAt,value
2019-05-19T00:02:18.008Z,85.54
2019-05-19T00:04:46.443Z,85.92
2019-05-19T00:07:15.203Z,85.47
2019-05-19T00:09:43.703Z,85.42
2019-05-19T00:12:12.192Z,85.59
2019-05-19T00:14:40.611Z,85.56
2019-05-19T00:17:09.009Z,85.93
2019-05-19T00:19:37.527Z,86.05
2019-05-19T00:22:05.936Z,86.48
2019-05-19T00:24:34.337Z,87.06
2019-05-19T00:27:02.731Z,87.04
2019-05-19T00:29:31.173Z,86.98
2019-05-19T00:31:59.665Z,87.32
2019-05-19T00:34:28.071Z,87.31
2019-05-19T00:36:56.466Z,87.53
2019-05-19T00:39:25.357Z,86.74
2019-05-19T00:41:53.812Z,87.40
2019-05-19T00:44:22.218Z,87.13
2019-05-19T00:46:50.607Z,87.47
2019-05-19T00:49:19.380Z,87.26
2019-05-19T00:51:47.785Z,87.28
2019-05-19T00:54:16.185Z,87.83
2019-05-19T00:56:45.018Z,87.79
2019-05-19T00:59:14.252Z,88.33
2019-05-19T01:01:43.004Z,88.16
2019-05-19T01:04:11.404Z,88.53
2019-05-19T01:06:39.799Z,88.59
2019-05-19T01:09:08.547Z,88.95
2019-05-19T01:11:37.266Z,88.65
2019-05-19T01:14:05.736Z,88.75
2019-05-19T01:16:34.127Z,88.64
2019-05-19T01:19:02.538Z,88.90
2019-05-19T01:21:31.847Z,88.93
2019-05-19T01:24:00.257Z,89.00
2019-05-19T01:26:28.942Z,89.03
2019-05-19T01:28:57.352Z,88.90
2019-05-19T01:31:25.805Z,88.85
2019-05-19T01:33:54.244Z,88.76
2019-05-19T01:36:22.640Z,89.05
2019-05-19T01:38:51.038Z,89.08
2019-05-19T01:41:19.422Z,89.54
2019-05-19T01:43:47.825Z,89.49
2019-05-19T01:46:16.221Z,89.84
2019-05-19T01:48:44.902Z,90.08
2019-05-19T01:51:13.260Z,90.20
2019-05-19T01:53:41.663Z,90.23
2019-05-19T01:56:10.322Z,90.34
2019-05-19T01:58:38.714Z,91.26
2019-05-19T02:01:07.383Z,91.56
2019-05-19T02:03:35.783Z,91.11
2019-05-19T02:06:04.452Z,90.69
2019-05-19T02:08:32.859Z,91.21
2019-05-19T02:11:01.247Z,90.95
2019-05-19T02:13:29.667Z,90.79
2019-05-19T02:15:58.061Z,90.51
2019-05-19T02:18:26.459Z,90.46
2019-05-19T02:20:54.846Z,90.43
2019-05-19T02:23:23.254Z,90.24
2019-05-19T02:25:51.639Z,90.56
2019-05-19T02:28:20.037Z,90.44
2019-05-19T02:30:48.428Z,90.45
2019-05-19T02:33:16.818Z,90.22
2019-05-19T02:35:45.551Z,89.94
2019-05-19T02:38:13.932Z,90.21
2019-05-19T02:40:45.368Z,89.87
2019-05-19T02:43:15.770Z,89.88
2019-05-19T02:45:45.603Z,89.78
2019-05-19T02:48:14.436Z,89.68
2019-05-19T02:50:52.360Z,89.74
2019-05-19T02:53:17.113Z,89.77
2019-05-19T02:55:46.266Z,89.83
2019-05-19T02:58:14.997Z,89.62
2019-05-19T03:00:43.765Z,89.30
2019-05-19T03:03:12.237Z,88.92
2019-05-19T03:05:40.622Z,88.86
2019-05-19T03:08:09.498Z,88.66
2019-05-19T03:10:38.181Z,88.79
2019-05-19T03:13:06.586Z,88.84
2019-05-19T03:15:35.248Z,89.04
2019-05-19T03:18:03.636Z,89.09
2019-05-19T03:20:32.103Z,89.00
2019-05-19T03:23:00.491Z,89.49
2019-05-19T03:25:29.181Z,89.23
2019-05-19T03:27:57.866Z,89.34
2019-05-19T03:30:28.187Z,89.37
2019-05-19T03:33:01.359Z,89.19
2019-05-19T03:35:29.741Z,89.21
2019-05-19T03:37:58.125Z,89.29
2019-05-19T03:40:26.527Z,89.88
2019-05-19T03:42:54.924Z,89.94
2019-05-19T03:45:23.600Z,89.80
2019-05-19T03:47:52.010Z,89.60
2019-05-19T03:50:20.391Z,89.75
2019-05-19T03:52:49.130Z,89.83
2019-05-19T03:55:17.604Z,90.00
2019-05-19T03:57:45.996Z,89.57
2019-05-19T04:00:14.731Z,89.62
2019-05-19T04:02:43.113Z,89.83
2019-05-19T04:05:11.795Z,90.20
2019-05-19T04:07:40.189Z,90.21
2019-05-19T04:10:09.314Z,89.85
2019-05-19T04:12:37.706Z,89.80
2019-05-19T04:15:06.938Z,89.76
2019-05-19T04:17:35.323Z,90.12
2019-05-19T04:20:04.694Z,89.85
2019-05-19T04:22:33.082Z,89.80
2019-05-19T04:25:01.481Z,89.67
2019-05-19T04:27:29.862Z,89.50
2019-05-19T04:29:58.627Z,89.71
2019-05-19T04:32:27.023Z,89.73
2019-05-19T04:34:55.412Z,89.71
2019-05-19T04:37:23.825Z,89.60
2019-05-19T04:39:52.548Z,89.53
2019-05-19T04:42:21.252Z,89.61
2019-05-19T04:44:49.634Z,89.56
2019-05-19T04:47:18.017Z,89.42
2019-05-19T04:49:46.416Z,89.33
2019-05-19T04:52:14.810Z,89.37
2019-05-19T04:54:43.202Z,89.42
2019-05-19T04:57:11.912Z,89.32
2019-05-19T04:59:40.330Z,89.17
2019-05-19T05:02:08.740Z,89.09
2019-05-19T05:04:37.140Z,88.63
2019-05-19T05:07:05.547Z,88.82
2019-05-19T05:09:33.945Z,88.56
2019-05-19T05:12:02.595Z,88.51
2019-05-19T05:14:30.986Z,88.07
2019-05-19T05:16:59.662Z,88.19
2019-05-19T05:19:28.052Z,87.59
2019-05-19T05:21:56.723Z,87.43
2019-05-19T05:24:28.469Z,87.18
2019-05-19T05:26:55.556Z,86.95
2019-05-19T05:29:23.953Z,87.03
2019-05-19T05:31:52.362Z,86.49
2019-05-19T05:34:21.081Z,86.10
2019-05-19T05:36:49.485Z,85.71
2019-05-19T05:39:17.896Z,85.10
2019-05-19T05:41:46.629Z,84.52
2019-05-19T05:44:15.023Z,84.46
2019-05-19T05:46:43.418Z,84.41
2019-05-19T05:49:12.080Z,84.27
2019-05-19T05:51:40.778Z,84.07
2019-05-19T05:54:09.456Z,84.32
2019-05-19T05:56:37.861Z,84.35
2019-05-19T05:59:06.518Z,83.62
2019-05-19T06:01:35.208Z,83.83
2019-05-19T06:04:03.829Z,84.00
2019-05-19T06:06:32.232Z,83.78
2019-05-19T06:09:00.956Z,83.50
2019-05-19T06:11:29.645Z,83.87
2019-05-19T06:13:58.330Z,83.19
2019-05-19T06:16:27.017Z,82.12
2019-05-19T06:18:56.859Z,81.95
2019-05-19T06:21:25.388Z,82.48
2019-05-19T06:23:53.777Z,82.34
2019-05-19T06:26:22.183Z,81.41
2019-05-19T06:28:50.857Z,81.03
2019-05-19T06:31:19.291Z,80.86
2019-05-19T06:33:47.679Z,80.71
2019-05-19T06:36:16.081Z,81.36
2019-05-19T06:38:44.803Z,80.52
2019-05-19T06:41:13.443Z,79.80
2019-05-19T06:43:42.156Z,79.95
2019-05-19T06:46:10.549Z,80.68
2019-05-19T06:48:38.934Z,78.99
2019-05-19T06:51:07.336Z,79.44
2019-05-19T06:53:35.737Z,77.48
2019-05-19T06:56:04.106Z,76.80
2019-05-19T06:58:32.490Z,76.21
2019-05-19T07:01:00.887Z,75.85
2019-05-19T07:03:29.630Z,74.22
2019-05-19T07:05:58.307Z,74.78
2019-05-19T07:08:26.672Z,75.08
2019-05-19T07:10:55.073Z,73.67
2019-05-19T07:13:23.461Z,73.49
2019-05-19T07:15:52.118Z,74.66
2019-05-19T07:18:20.796Z,71.54
2019-05-19T07:20:49.195Z,70.37
2019-05-19T07:23:27.818Z,68.11
2019-05-19T07:25:47.689Z,66.93
2019-05-19T07:28:16.075Z,66.36
2019-05-19T07:30:45.055Z,67.26
2019-05-19T07:33:13.449Z,65.84
2019-05-19T07:35:42.112Z,67.76
2019-05-19T07:38:10.510Z,66.37
2019-05-19T07:40:38.894Z,67.48
2019-05-19T07:43:07.562Z,66.80
2019-05-19T07:45:35.936Z,68.10
2019-05-19T07:48:04.331Z,67.65
2019-05-19T07:50:32.717Z,67.34
2019-05-19T07:53:01.131Z,67.41
2019-05-19T07:55:29.501Z,66.00
2019-05-19T07:57:58.327Z,66.01
2019-05-19T08:00:26.714Z,65.79
2019-05-19T08:02:55.174Z,64.71
2019-05-19T08:05:23.903Z,64.37
2019-05-19T08:07:52.306Z,64.54
2019-05-19T08:10:20.969Z,63.93
2019-05-19T08:12:49.370Z,62.08
2019-05-19T08:15:18.243Z,62.26
2019-05-19T08:17:46.666Z,63.29
2019-05-19T08:20:15.990Z,63.23
2019-05-19T08:22:44.385Z,63.99
2019-05-19T08:25:13.008Z,64.62
2019-05-19T08:27:41.391Z,66.06
2019-05-19T08:30:10.328Z,64.78
2019-05-19T08:32:39.045Z,66.02
2019-05-19T08:35:08.241Z,65.54
2019-05-19T08:37:36.650Z,65.39
2019-05-19T08:40:05.885Z,65.04
2019-05-19T08:42:34.608Z,64.98
2019-05-19T08:45:03.174Z,65.33
2019-05-19T08:47:31.569Z,65.13
2019-05-19T08:50:00.260Z,65.05
2019-05-19T08:52:28.663Z,63.95
2019-05-19T08:54:57.036Z,63.98
2019-05-19T08:57:25.520Z,64.96
2019-05-19T08:59:54.286Z,66.25
2019-05-19T09:02:22.682Z,64.54
2019-05-19T09:04:51.064Z,64.52
2019-05-19T09:07:19.455Z,63.33
2019-05-19T09:09:48.029Z,63.28
2019-05-19T09:12:17.108Z,64.77
2019-05-19T09:14:45.496Z,64.01
2019-05-19T09:17:14.214Z,64.78
2019-05-19T09:19:42.570Z,64.76
2019-05-19T09:22:11.253Z,65.54
2019-05-19T09:24:39.631Z,65.16
2019-05-19T09:27:08.026Z,63.23
2019-05-19T09:29:36.402Z,65.15
2019-05-19T09:32:04.803Z,65.94
2019-05-19T09:34:33.485Z,64.69
2019-05-19T09:37:01.905Z,62.22
2019-05-19T09:39:30.256Z,62.60
2019-05-19T09:41:58.656Z,61.24
2019-05-19T09:44:27.046Z,61.66
2019-05-19T09:46:55.445Z,62.98
2019-05-19T09:49:34.353Z,64.17
2019-05-19T09:52:04.981Z,62.47
2019-05-19T09:54:44.577Z,61.36
2019-05-19T09:57:03.848Z,62.12
2019-05-19T09:59:32.222Z,60.45
2019-05-19T10:02:00.609Z,60.94
2019-05-19T10:04:29.755Z,59.77
2019-05-19T10:06:58.153Z,59.62
2019-05-19T10:09:39.009Z,59.34
2019-05-19T10:12:08.828Z,59.54
2019-05-19T10:14:37.518Z,58.64
2019-05-19T10:17:05.925Z,58.05
2019-05-19T10:19:34.585Z,58.04
2019-05-19T10:22:02.981Z,58.65
2019-05-19T10:24:31.370Z,59.12
2019-05-19T10:26:59.763Z,55.25
2019-05-19T10:29:28.294Z,55.25
2019-05-19T10:31:56.720Z,55.79
2019-05-19T10:34:25.103Z,55.95
2019-05-19T10:36:53.752Z,56.75
2019-05-19T10:39:22.133Z,54.87
2019-05-19T10:41:50.518Z,53.91
2019-05-19T10:44:18.913Z,54.89
2019-05-19T10:46:47.587Z,55.79
2019-05-19T10:49:15.977Z,56.34
2019-05-19T10:51:44.358Z,58.51
2019-05-19T10:54:12.752Z,55.48
2019-05-19T10:56:41.190Z,56.71
2019-05-19T10:59:09.580Z,55.26
2019-05-19T11:01:37.965Z,55.26
2019-05-19T11:04:06.366Z,55.41
2019-05-19T11:06:34.749Z,55.60
2019-05-19T11:09:04.831Z,55.29
2019-05-19T11:11:33.217Z,53.54
2019-05-19T11:14:01.610Z,54.56
2019-05-19T11:16:29.999Z,55.31
2019-05-19T11:18:58.391Z,55.38
2019-05-19T11:21:27.035Z,55.32
2019-05-19T11:23:55.425Z,52.79
2019-05-19T11:26:23.809Z,53.68
2019-05-19T11:28:52.207Z,53.25
2019-05-19T11:31:20.595Z,54.39
2019-05-19T11:33:49.251Z,53.04
2019-05-19T11:36:17.634Z,54.81
2019-05-19T11:38:46.100Z,54.81
2019-05-19T11:41:14.507Z,54.89
2019-05-19T11:43:42.877Z,54.66
2019-05-19T11:46:11.548Z,53.10
2019-05-19T11:48:39.947Z,53.66
2019-05-19T11:51:08.335Z,52.37
2019-05-19T11:53:36.722Z,51.89
2019-05-19T11:56:08.017Z,51.30
2019-05-19T11:58:35.300Z,50.97
2019-05-19T12:01:03.748Z,49.14
2019-05-19T12:03:32.147Z,50.52
2019-05-19T12:06:00.530Z,49.43
2019-05-19T12:08:28.933Z,48.43
2019-05-19T12:10:57.313Z,47.42
2019-05-19T12:13:25.976Z,50.08
2019-05-19T12:15:54.374Z,49.40
2019-05-19T12:18:23.089Z,49.52
2019-05-19T12:20:51.477Z,48.98
2019-05-19T12:23:19.871Z,50.06
2019-05-19T12:25:49.794Z,50.31
2019-05-19T12:28:18.189Z,49.16
2019-05-19T12:30:46.885Z,50.07
2019-05-19T12:33:15.296Z,50.96
2019-05-19T12:35:44.064Z,51.03
2019-05-19T12:38:12.449Z,49.70
2019-05-19T12:40:42.012Z,50.52
2019-05-19T12:43:10.399Z,50.98
2019-05-19T12:45:38.862Z,52.08
2019-05-19T12:48:07.414Z,50.91
2019-05-19T12:50:36.069Z,51.61
2019-05-19T12:53:04.451Z,52.23
2019-05-19T12:55:32.844Z,51.82
2019-05-19T12:58:01.224Z,52.09
2019-05-19T13:00:29.639Z,50.23
2019-05-19T13:02:58.276Z,50.99
2019-05-19T13:05:26.967Z,50.45
2019-05-19T13:07:55.347Z,52.70
2019-05-19T13:10:23.807Z,51.70
2019-05-19T13:12:52.215Z,53.93
2019-05-19T13:15:20.672Z,53.93
2019-05-19T13:17:49.051Z,55.04
2019-05-19T13:20:17.678Z,54.67
2019-05-19T13:22:46.334Z,53.36
2019-05-19T13:25:14.793Z,54.29
2019-05-19T13:27:43.177Z,54.29
2019-05-19T13:30:11.985Z,53.96
2019-05-19T13:32:40.368Z,53.73
2019-05-19T13:35:09.358Z,55.65
2019-05-19T13:37:37.743Z,54.43
2019-05-19T13:40:06.786Z,52.76
2019-05-19T13:42:35.513Z,52.76
2019-05-19T13:45:08.396Z,54.91
2019-05-19T13:47:37.087Z,53.13
2019-05-19T13:50:08.755Z,53.17
2019-05-19T13:52:37.212Z,51.73
2019-05-19T13:55:07.178Z,52.46
2019-05-19T13:57:35.844Z,51.11
2019-05-19T14:00:05.739Z,52.18
2019-05-19T14:02:34.127Z,53.08
2019-05-19T14:05:02.539Z,52.52
2019-05-19T14:07:30.910Z,53.77
2019-05-19T14:09:59.305Z,54.10
2019-05-19T14:12:27.687Z,55.15
2019-05-19T14:14:56.092Z,55.27
2019-05-19T14:17:24.481Z,55.79
2019-05-19T14:19:53.241Z,55.35
2019-05-19T14:22:21.635Z,60.46
2019-05-19T14:24:50.013Z,60.46
2019-05-19T14:27:29.370Z,64.94
2019-05-19T14:29:48.790Z,67.44
2019-05-19T14:32:17.179Z,69.35
2019-05-19T14:34:45.579Z,71.92
2019-05-19T14:37:14.233Z,74.15
2019-05-19T14:39:42.624Z,74.48
2019-05-19T14:42:12.670Z,78.96
2019-05-19T14:44:41.045Z,80.63
2019-05-19T14:47:09.801Z,78.72
2019-05-19T14:49:38.193Z,78.62
2019-05-19T14:52:06.585Z,83.82
2019-05-19T14:54:34.964Z,88.30
2019-05-19T14:57:03.360Z,88.76
2019-05-19T14:59:31.749Z,88.63
2019-05-19T15:02:00.136Z,89.29
2019-05-19T15:04:28.525Z,89.20
2019-05-19T15:06:57.247Z,89.82
2019-05-19T15:09:25.653Z,91.32
2019-05-19T15:11:54.322Z,90.03
2019-05-19T15:14:22.699Z,91.26
2019-05-19T15:16:51.094Z,90.92
2019-05-19T15:19:19.482Z,90.64
2019-05-19T15:21:47.883Z,90.62
2019-05-19T15:24:16.266Z,89.85
2019-05-19T15:26:44.674Z,89.96
2019-05-19T15:29:13.064Z,89.63
2019-05-19T15:31:41.464Z,89.34
2019-05-19T15:34:09.862Z,90.15
2019-05-19T15:36:38.258Z,91.24
2019-05-19T15:39:06.790Z,91.91
2019-05-19T15:41:35.276Z,92.72
2019-05-19T15:44:03.610Z,93.09
2019-05-19T15:46:32.004Z,92.89
2019-05-19T15:49:00.394Z,93.23
2019-05-19T15:51:34.787Z,92.84
2019-05-19T15:53:58.909Z,91.39
2019-05-19T15:56:28.059Z,91.25
2019-05-19T15:58:56.443Z,90.60
2019-05-19T16:01:24.897Z,91.12
2019-05-19T16:03:53.298Z,91.74
2019-05-19T16:06:22.031Z,91.26
2019-05-19T16:08:50.719Z,91.70
2019-05-19T16:11:19.114Z,91.88
2019-05-19T16:13:47.789Z,91.86
2019-05-19T16:16:16.193Z,91.79
2019-05-19T16:18:44.574Z,90.32
2019-05-19T16:21:12.971Z,90.12
2019-05-19T16:23:41.347Z,90.74
2019-05-19T16:26:09.741Z,91.46
2019-05-19T16:28:38.125Z,90.17
2019-05-19T16:31:06.861Z,90.93
2019-05-19T16:33:35.249Z,90.72
2019-05-19T16:36:03.636Z,91.22
2019-05-19T16:38:32.031Z,91.54
2019-05-19T16:41:00.413Z,91.73
2019-05-19T16:43:28.807Z,91.57
2019-05-19T16:45:57.192Z,91.63
2019-05-19T16:48:26.128Z,90.84
2019-05-19T16:50:54.522Z,90.12
2019-05-19T16:53:22.919Z,90.04
2019-05-19T16:55:51.318Z,88.71
2019-05-19T16:58:21.489Z,89.49
2019-05-19T17:00:49.894Z,88.90
2019-05-19T17:03:18.280Z,88.14
2019-05-19T17:05:47.044Z,87.72
2019-05-19T17:08:15.433Z,88.20
2019-05-19T17:10:43.841Z,88.75
2019-05-19T17:13:12.241Z,89.23
2019-05-19T17:15:40.623Z,89.38
2019-05-19T17:18:09.338Z,89.12
2019-05-19T17:20:37.737Z,88.05
2019-05-19T17:23:06.157Z,86.41
2019-05-19T17:25:34.543Z,86.20
2019-05-19T17:28:03.262Z,85.70
2019-05-19T17:30:31.659Z,86.04
2019-05-19T17:33:00.074Z,86.79
2019-05-19T17:35:28.458Z,87.22
2019-05-19T17:37:56.851Z,87.84
2019-05-19T17:40:25.571Z,88.36
2019-05-19T17:42:54.255Z,89.22
2019-05-19T17:45:23.699Z,87.64
2019-05-19T17:47:53.658Z,86.74
2019-05-19T17:50:33.367Z,86.67
2019-05-19T17:53:02.536Z,87.08
2019-05-19T17:55:33.018Z,87.82
2019-05-19T17:58:02.155Z,89.27
2019-05-19T18:00:39.333Z,89.06
2019-05-19T18:03:09.120Z,88.40
2019-05-19T18:05:37.741Z,88.74
2019-05-19T18:08:06.509Z,89.13
2019-05-19T18:10:35.055Z,89.69
2019-05-19T18:13:03.793Z,89.71
2019-05-19T18:15:32.178Z,89.88
2019-05-19T18:18:00.962Z,89.91
2019-05-19T18:20:29.661Z,89.34
2019-05-19T18:22:58.177Z,89.33
2019-05-19T18:25:26.610Z,89.30
2019-05-19T18:27:54.981Z,88.34
2019-05-19T18:30:25.524Z,88.92
2019-05-19T18:32:53.913Z,90.33
2019-05-19T18:35:22.313Z,90.18
2019-05-19T18:37:50.693Z,90.60
2019-05-19T18:40:19.565Z,90.31
2019-05-19T18:42:47.953Z,89.92
2019-05-19T18:45:16.697Z,89.62
2019-05-19T18:47:45.456Z,89.77
2019-05-19T18:50:14.290Z,89.85
2019-05-19T18:52:42.978Z,89.02
2019-05-19T18:55:11.719Z,88.87
2019-05-19T18:57:40.119Z,89.76
2019-05-19T19:00:09.062Z,90.58
2019-05-19T19:02:37.518Z,90.56
2019-05-19T19:05:07.236Z,91.22
2019-05-19T19:07:55.400Z,91.22
2019-05-19T19:10:25.433Z,91.32
2019-05-19T19:12:54.082Z,91.40
2019-05-19T19:15:22.720Z,91.30
2019-05-19T19:17:51.119Z,91.31
2019-05-19T19:20:19.699Z,91.13
2019-05-19T19:22:48.146Z,91.32
2019-05-19T19:25:16.538Z,91.22
2019-05-19T19:27:44.931Z,91.12
2019-05-19T19:30:13.864Z,91.29
2019-05-19T19:32:42.281Z,91.29
2019-05-19T19:35:10.806Z,90.58
2019-05-19T19:37:39.193Z,90.49
2019-05-19T19:40:08.156Z,90.75
2019-05-19T19:42:36.891Z,90.59
2019-05-19T19:45:07.013Z,91.05
2019-05-19T19:47:35.398Z,91.37
2019-05-19T19:50:05.774Z,91.82
2019-05-19T19:52:34.227Z,91.98
2019-05-19T19:55:02.626Z,92.00
2019-05-19T19:57:31.254Z,92.16
2019-05-19T19:59:59.657Z,92.47
2019-05-19T20:02:28.150Z,93.00
2019-05-19T20:04:56.548Z,92.95
2019-05-19T20:07:24.940Z,93.01
2019-05-19T20:09:53.670Z,93.04
2019-05-19T20:12:22.055Z,92.84
2019-05-19T20:14:50.445Z,92.10
2019-05-19T20:17:18.833Z,92.18
2019-05-19T20:19:47.237Z,92.30
2019-05-19T20:22:15.614Z,92.22
2019-05-19T20:24:43.999Z,92.06
2019-05-19T20:27:12.500Z,91.50
2019-05-19T20:29:41.211Z,91.10
2019-05-19T20:32:09.608Z,90.98
2019-05-19T20:34:38.005Z,90.94
2019-05-19T20:37:06.660Z,90.94
2019-05-19T20:39:35.055Z,91.87
2019-05-19T20:42:03.518Z,92.38
2019-05-19T20:44:32.229Z,92.58
2019-05-19T20:47:00.617Z,92.89
2019-05-19T20:49:29.003Z,93.02
2019-05-19T20:51:57.392Z,93.11
2019-05-19T20:54:25.786Z,93.41
2019-05-19T20:56:54.173Z,93.52
2019-05-19T20:59:22.558Z,93.52
2019-05-19T21:01:50.942Z,93.72
2019-05-19T21:04:19.346Z,93.64
2019-05-19T21:06:48.084Z,93.42
2019-05-19T21:09:16.774Z,93.58
2019-05-19T21:11:45.471Z,93.72
2019-05-19T21:14:13.847Z,93.86
2019-05-19T21:16:42.236Z,93.92
2019-05-19T21:19:10.617Z,94.02
2019-05-19T21:21:39.011Z,94.26
2019-05-19T21:24:07.658Z,94.00
2019-05-19T21:26:36.305Z,93.84
2019-05-19T21:29:04.759Z,93.50
2019-05-19T21:31:33.397Z,93.67
2019-05-19T21:34:01.786Z,92.95
2019-05-19T21:36:30.183Z,93.40
2019-05-19T21:38:58.577Z,93.50
2019-05-19T21:41:27.238Z,93.62
2019-05-19T21:43:55.618Z,93.70
2019-05-19T21:46:24.015Z,93.78
2019-05-19T21:48:52.406Z,93.67
2019-05-19T21:51:20.813Z,93.70
2019-05-19T21:53:49.368Z,93.96
2019-05-19T21:56:17.757Z,94.21
2019-05-19T21:58:46.141Z,94.12
2019-05-19T22:01:22.921Z,94.09
2019-05-19T22:03:45.020Z,94.04
2019-05-19T22:06:13.644Z,94.12
2019-05-19T22:08:42.036Z,94.55
2019-05-19T22:11:10.417Z,94.65
2019-05-19T22:13:38.814Z,94.52
2019-05-19T22:16:12.741Z,94.38
2019-05-19T22:18:37.296Z,94.27
2019-05-19T22:21:05.926Z,94.29
2019-05-19T22:23:34.571Z,94.55
2019-05-19T22:26:03.129Z,94.92
2019-05-19T22:28:31.834Z,94.68
2019-05-19T22:31:00.220Z,94.57
2019-05-19T22:33:28.607Z,94.50
2019-05-19T22:35:57.006Z,94.44
2019-05-19T22:38:25.396Z,94.07
2019-05-19T22:40:53.778Z,94.29
2019-05-19T22:43:22.170Z,94.32
2019-05-19T22:45:50.550Z,94.40
2019-05-19T22:48:18.941Z,94.36
2019-05-19T22:50:47.324Z,94.25
2019-05-19T22:53:15.711Z,94.31
2019-05-19T22:55:44.364Z,94.24
2019-05-19T22:58:12.755Z,94.45
2019-05-19T23:00:41.379Z,94.69
2019-05-19T23:03:09.762Z,94.52
2019-05-19T23:05:38.233Z,94.38
2019-05-19T23:08:06.972Z,94.58
2019-05-19T23:10:35.359Z,94.75
2019-05-19T23:13:03.990Z,95.05
2019-05-19T23:15:32.619Z,95.24
2019-05-19T23:18:01.020Z,95.02
2019-05-19T23:20:29.689Z,94.97
2019-05-19T23:22:58.079Z,94.94
2019-05-19T23:25:26.752Z,94.99
2019-05-19T23:27:55.156Z,94.91
2019-05-19T23:30:23.767Z,94.81
2019-05-19T23:32:52.148Z,95.05
2019-05-19T23:35:20.542Z,95.38
2019-05-19T23:37:48.927Z,95.04
2019-05-19T23:40:17.326Z,94.90
2019-05-19T23:42:45.714Z,94.97
2019-05-19T23:45:14.714Z,94.93
2019-05-19T23:47:43.088Z,94.84
2019-05-19T23:50:11.977Z,94.80
2019-05-19T23:52:40.389Z,95.09
2019-05-19T23:55:10.223Z,94.88
2019-05-19T23:57:38.854Z,94.87
